Weather at Palmerston Airport

Public forecast

Using degrees Celsius for public forecast. Weather courtesy of forecast.io.

Closest aviation weather report (METAR) to Palmerston Airport

Closest report is Waterloo Airport, 29.3 nm (54.3 km) SE. Retrieved 2020/09/20 01:00 UTC (35 minutes ago):

CYKF 200100Z AUTO VRB02KT 9SM CLR 06/01 A3039 RMK SLP303

Closest aviation forecast (TAF) to Palmerston Airport

Closest forecast is Waterloo Airport, 29.3 nm (54.3 km) SE. Retrieved 2020-09-20 02:42 UTC (0 seconds ago):

TAF CYKF 200139Z 2002/2014 VRB03KT P6SM SKC FM200300 VRB03KT P6SM SCT170 FM200900 VRB03KT P6SM SCT060 RMK FCST BASED ON AUTO OBS NXT FCST BY 200800Z